Airfield :
LOGIN :

Register | Disclaimer

   EN    FR    IT 

 










Legend :    VFR   Marginal VFR   IFR   Intensive IFR   Very Intensive IFR
Visi :
Ceiling :
>= 8 km
>= 3000ft
5 to 8 km
1000 to 3000 ft
1500m to 5 km
500 to 1000 ft
800 to 1500m
200 to 500 ft
< 800m
< 200 ft
Symbols :   Thunderstorms  Fog  Heavy snow  Heavy precipitations  Wind > 20 kt
SIGMETs :     Misc.  Thunderstorms  Icing  Turbulence  Mountain Waves  Volcanic Ashes







- Airport Elevation : 200 ft


EBBL - Klein Brogel AB

CURRENT METAR :
  • 182055Z AUTO 25008KT 9999 -DZ FEW029/// BKN046/// 07/06 Q1017 BLU

EXPIRED METARs :
  • 182043Z AUTO 25008KT 9999 BKN029/// 07/06 Q1017 BLU
  • 182025Z AUTO 27003KT 9000 OVC021/// 06/06 Q1017 WHT
  • 181955Z AUTO 30005KT 7000 -RA OVC012/// 06/05 Q1017 GRN
  • 181925Z AUTO 24007KT 9999 SCT013/// BKN039/// 07/05 Q1017 GRN
  • 181855Z AUTO 23008KT 9999 SCT013/// BKN045/// OVC180/// 07/05 Q1017 GRN
  • 181825Z AUTO 23010KT 9999 SCT059/// BKN180/// BKN220/// 06/05 Q1017 BLU

Expired Forecast.
No reported NOTAMs for that airfield.
5 SIGMETs reported for the Brussels FIR (EBBU) :
 
SIGMET 03 cancelation
EBBU SIGMET 06 VALID 182114/190114 EBBR
EBBU BRUSSELS FIR CNL SIGMET 03 VALID 182059/190059=
Severe icing
EBBU SIGMET 05 VALID 182111/190100 EBBR
EBBU BRUSSELS FIR SEV ICE OBS S OF LINE N5040 E00315 - N5010 E00615 FL080/220 MOV ESE 20KT NC=
SIGMET 02 cancelation
EBBU SIGMET 04 VALID 182100/190100 EBBR
EBBU BRUSSELS FIR CNL SIGMET 02 VALID 182046/190046=
Severe icing
EBBU SIGMET 03 VALID 182059/190059 EBBR
EBBU BRUSSELS FIR SEV ICE OBS WI N5030 E00245 - N5040 E00330 - N4920 E00500 - N5000 E00600 FL080/180 MOV ESE 20KT NC=
SIGMET 02  CANCELED :
Severe icing
EBBU SIGMET 02 VALID 182046/190046 EBBR
EBBU BRUSSELS FIR SEV ICE OBS WI N5030 E00245 - N5040 E00330 - N4920 E00500 - N4920 E00640 FL080/180 MOV ESE 20KT NC=



MET'MAP, your aeronautical weather chart ! - Copyright ORBIFLY December 2007 - Disclaimer

ORBIFLY MET'MAP TEAM :

Programming & Development : Alexandra Zaïnal
Concept & Development : Baudouin d'Aumeries
Co-Development & Prog : Marc-Olivier Méhu
Technical & hardware support : Manuel Goepfert

Contact : metmap@orbifly.com




SOURCES & CREDITS :

   NOAA